KUIN/UIN METAR and TAF weather

Enter ICAO airport designator
Station Type Date Time Source
KUIN METAR 2020/11/25 22:54 UTC NOAA

KUIN 252254Z AUTO 31009KT 10SM BKN005 OVC015 08/07 A2982 RMK AO2 SLP098 T00780067


Station Type Date Time Source
KUIN Decoded METAR 2020/11/25 22:54 UTC NOAA

QUINCY MUNI. BALDWIN FIELD, IL, United States (KUIN) 39-56N 091-12W
Nov 25, 2020 - 05:54 PM EST / 2020.11.25 2254 UTC
Wind: from the NW (310 degrees) at 10 MPH (9 KT):0
Visibility: 10 mile(s):0
Sky conditions: overcast
Temperature: 46.0 F (7.8 C)
Dew Point: 44.1 F (6.7 C)
Relative Humidity: 92%
Pressure (altimeter): 29.82 in. Hg (1009 hPa)
ob: KUIN 252254Z AUTO 31009KT 10SM BKN005 OVC015 08/07 A2982 RMK AO2 SLP098 T00780067
cycle: 23

Station Type Date Time Source
KUIN TAF 2020/11/25 21:04 UTC NOAA

TAF
AMD KUIN 252102Z 2521/2618 02005KT 2SM BR VCSH OVC004
FM260100 31008KT P6SM OVC005
FM261400 21005KT P6SM SCT030

Example: see airport list